createdAt,value
2019-02-12T00:02:19.880Z,21.48
2019-02-12T00:04:50.180Z,24.75
2019-02-12T00:07:20.407Z,25.17
2019-02-12T00:09:50.872Z,23.83
2019-02-12T00:12:21.341Z,21.55
2019-02-12T00:14:51.755Z,26.70
2019-02-12T00:17:21.955Z,24.52
2019-02-12T00:19:52.111Z,23.80
2019-02-12T00:22:22.423Z,27.17
2019-02-12T00:24:52.636Z,23.07
2019-02-12T00:27:22.911Z,22.37
2019-02-12T00:29:53.484Z,20.25
2019-02-12T00:32:24.732Z,18.40
2019-02-12T00:34:55.005Z,20.25
2019-02-12T00:37:25.241Z,20.68
2019-02-12T00:39:55.510Z,20.48
2019-02-12T00:42:25.705Z,23.57
2019-02-12T00:44:55.971Z,18.80
2019-02-12T00:47:26.222Z,15.18
2019-02-12T00:49:56.582Z,17.82
2019-02-12T00:52:26.943Z,20.55
2019-02-12T00:54:57.213Z,16.50
2019-02-12T00:57:27.416Z,16.65
2019-02-12T00:59:57.706Z,15.00
2019-02-12T01:02:27.849Z,14.63
2019-02-12T01:04:58.070Z,18.92
2019-02-12T01:07:28.290Z,14.73
2019-02-12T01:09:58.511Z,11.22
2019-02-12T01:12:28.678Z,12.30
2019-02-12T01:14:58.904Z,12.23
2019-02-12T01:17:29.225Z,12.93
2019-02-12T01:19:59.513Z,10.05
2019-02-12T01:22:29.694Z,10.90
2019-02-12T01:24:59.949Z,11.73
2019-02-12T01:27:30.245Z,9.13
2019-02-12T01:30:00.457Z,11.22
2019-02-12T01:32:31.587Z,11.38
2019-02-12T01:35:01.720Z,11.68
2019-02-12T01:37:31.981Z,10.93
2019-02-12T01:40:02.170Z,13.62
2019-02-12T01:42:32.436Z,10.40
2019-02-12T01:45:02.635Z,12.70
2019-02-12T01:47:32.918Z,12.78
2019-02-12T01:50:03.343Z,10.55
2019-02-12T01:52:33.635Z,12.63
2019-02-12T01:55:03.862Z,10.60
2019-02-12T01:57:34.119Z,11.63
2019-02-12T02:00:06.162Z,10.58
2019-02-12T02:02:36.371Z,15.88
2019-02-12T02:05:09.054Z,13.58
2019-02-12T02:07:42.402Z,12.45
2019-02-12T02:10:15.183Z,14.38
2019-02-12T02:12:45.453Z,14.38
2019-02-12T02:15:16.082Z,12.82
2019-02-12T02:17:46.229Z,14.28
2019-02-12T02:20:16.592Z,15.65
2019-02-12T02:22:46.961Z,17.37
2019-02-12T02:25:17.149Z,15.98
2019-02-12T02:27:47.496Z,14.33
2019-02-12T02:30:18.100Z,15.65
2019-02-12T02:32:49.123Z,15.40
2019-02-12T02:35:19.348Z,15.60
2019-02-12T02:37:49.482Z,13.85
2019-02-12T02:40:19.722Z,13.45
2019-02-12T02:42:49.990Z,12.75
2019-02-12T02:45:21.643Z,13.53
2019-02-12T02:47:51.930Z,13.83
2019-02-12T02:50:22.076Z,14.10
2019-02-12T02:52:52.304Z,11.30
2019-02-12T02:55:22.581Z,16.02
2019-02-12T02:57:52.787Z,12.53
2019-02-12T03:00:23.244Z,13.25
2019-02-12T03:02:53.462Z,15.53
2019-02-12T03:05:23.794Z,10.03
2019-02-12T03:07:54.119Z,10.78
2019-02-12T03:10:24.283Z,11.90
2019-02-12T03:12:54.514Z,10.15
2019-02-12T03:15:24.739Z,15.85
2019-02-12T03:17:54.989Z,14.90
2019-02-12T03:20:25.273Z,12.10
2019-02-12T03:22:55.512Z,9.65
2019-02-12T03:25:25.751Z,11.73
2019-02-12T03:27:56.048Z,13.90
2019-02-12T03:30:26.093Z,10.45
2019-02-12T03:32:57.164Z,11.65
2019-02-12T03:35:27.353Z,13.70
2019-02-12T03:37:57.670Z,10.70
2019-02-12T03:40:27.880Z,12.25
2019-02-12T03:42:58.119Z,12.20
2019-02-12T03:45:28.398Z,11.03
2019-02-12T03:47:58.556Z,14.83
2019-02-12T03:50:28.781Z,13.45
2019-02-12T03:52:58.779Z,10.03
2019-02-12T03:55:29.283Z,9.40
2019-02-12T03:57:58.873Z,15.83
2019-02-12T04:00:29.115Z,7.92
2019-02-12T04:03:06.820Z,13.83
2019-02-12T04:05:38.113Z,7.85
2019-02-12T04:08:08.307Z,9.90
2019-02-12T04:10:38.490Z,7.42
2019-02-12T04:13:08.816Z,18.20
2019-02-12T04:15:39.042Z,10.15
2019-02-12T04:18:09.504Z,13.65
2019-02-12T04:20:39.762Z,12.05
2019-02-12T04:23:09.980Z,9.10
2019-02-12T04:25:40.164Z,10.32
2019-02-12T04:28:10.046Z,5.57
2019-02-12T04:30:40.236Z,10.93
2019-02-12T04:33:11.437Z,7.05
2019-02-12T04:35:41.600Z,7.83
2019-02-12T04:38:11.836Z,9.53
2019-02-12T04:40:42.002Z,8.68
2019-02-12T04:43:12.261Z,9.03
2019-02-12T04:45:42.796Z,5.50
2019-02-12T04:48:12.981Z,8.68
2019-02-12T04:50:43.175Z,6.50
2019-02-12T04:53:13.477Z,7.67
2019-02-12T04:55:43.158Z,5.47
2019-02-12T04:58:13.411Z,6.70
2019-02-12T05:00:43.072Z,6.17
2019-02-12T05:03:12.932Z,6.33
2019-02-12T05:05:43.073Z,5.62
2019-02-12T05:08:13.344Z,4.90
2019-02-12T05:10:59.660Z,6.05
2019-02-12T05:13:29.908Z,5.83
2019-02-12T05:15:59.644Z,5.83
2019-02-12T05:18:29.881Z,4.20
2019-02-12T05:20:59.486Z,5.33
2019-02-12T05:23:29.694Z,4.70
2019-02-12T05:25:59.242Z,6.83
2019-02-12T05:28:29.604Z,5.92
2019-02-12T05:30:59.799Z,5.08
2019-02-12T05:33:30.799Z,6.90
2019-02-12T05:36:01.045Z,6.35
2019-02-12T05:38:31.147Z,5.78
2019-02-12T05:41:01.333Z,8.38
2019-02-12T05:43:31.520Z,5.92
2019-02-12T05:46:01.765Z,6.72
2019-02-12T05:48:32.020Z,9.70
2019-02-12T05:51:01.639Z,7.63
2019-02-12T05:53:31.993Z,9.00
2019-02-12T05:56:01.558Z,9.57
2019-02-12T05:58:31.047Z,4.20
2019-02-12T06:01:01.309Z,6.97
2019-02-12T06:03:30.883Z,5.10
2019-02-12T06:06:01.112Z,8.93
2019-02-12T06:08:31.217Z,7.10
2019-02-12T06:11:00.879Z,8.80
2019-02-12T06:13:31.042Z,8.38
2019-02-12T06:16:01.227Z,9.38
2019-02-12T06:18:32.774Z,6.35
2019-02-12T06:21:02.459Z,8.90
2019-02-12T06:23:32.666Z,12.37
2019-02-12T06:26:02.398Z,15.48
2019-02-12T06:28:32.025Z,9.10
2019-02-12T06:31:02.177Z,6.50
2019-02-12T06:33:32.444Z,9.38
2019-02-12T06:36:02.695Z,7.90
2019-02-12T06:38:32.902Z,8.08
2019-02-12T06:41:03.471Z,4.95
2019-02-12T06:43:33.740Z,9.58
2019-02-12T06:46:04.013Z,6.28
2019-02-12T06:48:34.504Z,6.62
2019-02-12T06:51:05.021Z,10.68
2019-02-12T06:53:35.187Z,6.37
2019-02-12T06:56:05.495Z,6.67
2019-02-12T06:58:38.773Z,8.35
2019-02-12T07:01:08.532Z,10.72
2019-02-12T07:03:44.408Z,10.48
2019-02-12T07:06:23.618Z,11.75
2019-02-12T07:08:59.352Z,10.63
2019-02-12T07:11:57.058Z,14.00
2019-02-12T07:14:45.636Z,9.13
2019-02-12T07:17:38.316Z,7.97
2019-02-12T07:20:44.979Z,8.23
2019-02-12T07:23:30.106Z,14.47
2019-02-12T07:26:19.089Z,11.13
2019-02-12T07:29:14.667Z,10.57
2019-02-12T07:31:59.619Z,8.15
2019-02-12T07:34:47.932Z,13.25
2019-02-12T07:37:27.299Z,12.00
2019-02-12T07:40:00.631Z,11.40
2019-02-12T07:42:41.384Z,10.15
2019-02-12T07:45:31.728Z,11.70
2019-02-12T07:48:17.006Z,13.08
2019-02-12T07:51:02.018Z,11.43
2019-02-12T07:53:50.492Z,12.70
2019-02-12T07:56:35.847Z,11.60
2019-02-12T07:59:10.139Z,14.20
2019-02-12T08:01:46.014Z,14.20
2019-02-12T08:04:44.662Z,12.85
2019-02-12T08:07:33.175Z,12.53
2019-02-12T08:10:29.231Z,12.78
2019-02-12T08:13:05.116Z,10.72
2019-02-12T08:15:38.389Z,9.18
2019-02-12T08:18:11.618Z,7.22
2019-02-12T08:21:01.499Z,9.63
2019-02-12T08:23:49.840Z,13.98
2019-02-12T08:26:25.983Z,9.90
2019-02-12T08:29:04.791Z,12.15
2019-02-12T08:31:47.016Z,13.10
2019-02-12T08:34:34.715Z,12.83
2019-02-12T08:37:10.491Z,9.68
2019-02-12T08:39:49.655Z,11.83
2019-02-12T08:42:37.696Z,8.93
2019-02-12T08:45:16.739Z,11.97
2019-02-12T08:47:54.710Z,11.00
2019-02-12T08:50:27.853Z,7.33
2019-02-12T08:53:09.912Z,11.48
2019-02-12T08:55:50.224Z,8.48
2019-02-12T08:58:44.903Z,12.37
2019-02-12T09:01:23.923Z,16.48
2019-02-12T09:03:59.693Z,10.53
2019-02-12T09:06:47.967Z,12.33
2019-02-12T09:09:33.212Z,13.13
2019-02-12T09:12:16.273Z,11.15
2019-02-12T09:15:01.472Z,11.85
2019-02-12T09:17:51.154Z,8.23
2019-02-12T09:20:27.260Z,7.30
2019-02-12T09:23:17.186Z,12.18
2019-02-12T09:25:53.429Z,7.58
2019-02-12T09:28:29.138Z,10.65
2019-02-12T09:31:08.475Z,11.75
2019-02-12T09:34:13.716Z,10.90
2019-02-12T09:37:12.401Z,11.40
2019-02-12T09:40:03.787Z,12.03
2019-02-12T09:42:51.859Z,10.50
2019-02-12T09:45:47.908Z,11.70
2019-02-12T09:48:21.143Z,12.43
2019-02-12T09:51:03.448Z,11.50
2019-02-12T09:53:51.904Z,11.20
2019-02-12T09:56:34.132Z,9.48
2019-02-12T09:59:10.260Z,13.28
2019-02-12T10:02:08.919Z,11.75
2019-02-12T10:04:57.034Z,12.82
2019-02-12T10:07:33.304Z,13.10
2019-02-12T10:10:38.179Z,11.65
2019-02-12T10:13:17.059Z,8.10
2019-02-12T10:16:18.491Z,10.90
2019-02-12T10:19:09.971Z,10.00
2019-02-12T10:22:07.267Z,11.05
2019-02-12T10:24:43.047Z,11.30
2019-02-12T10:27:49.528Z,10.95
2019-02-12T10:30:25.515Z,9.23
2019-02-12T10:32:56.616Z,11.97
2019-02-12T10:35:26.970Z,13.65
2019-02-12T10:37:57.157Z,15.98
2019-02-12T10:40:28.234Z,15.32
2019-02-12T10:42:58.485Z,12.47
2019-02-12T10:45:28.637Z,10.95
2019-02-12T10:47:58.762Z,15.35
2019-02-12T10:50:28.395Z,13.03
2019-02-12T10:52:58.636Z,14.85
2019-02-12T10:55:28.833Z,14.33
2019-02-12T10:57:58.984Z,9.60
2019-02-12T11:00:29.451Z,17.45
2019-02-12T11:02:59.651Z,13.53
2019-02-12T11:05:29.959Z,14.58
2019-02-12T11:08:00.115Z,11.35
2019-02-12T11:10:30.354Z,10.80
2019-02-12T11:13:00.604Z,10.60
2019-02-12T11:15:30.918Z,10.68
2019-02-12T11:18:01.095Z,11.15
2019-02-12T11:20:31.671Z,8.83
2019-02-12T11:23:01.851Z,8.93
2019-02-12T11:25:32.646Z,12.13
2019-02-12T11:28:02.941Z,10.85
2019-02-12T11:30:33.176Z,14.15
2019-02-12T11:33:03.368Z,7.37
2019-02-12T11:35:33.667Z,10.00
2019-02-12T11:38:03.862Z,9.05
2019-02-12T11:40:35.065Z,12.20
2019-02-12T11:43:05.267Z,17.23
2019-02-12T11:45:35.471Z,17.23
2019-02-12T11:48:05.778Z,15.05
2019-02-12T11:50:36.016Z,10.48
2019-02-12T11:53:06.875Z,10.78
2019-02-12T11:55:37.378Z,13.80
2019-02-12T11:58:07.508Z,14.38
2019-02-12T12:00:39.375Z,9.83
2019-02-12T12:03:09.569Z,15.32
2019-02-12T12:05:39.778Z,13.83
2019-02-12T12:08:10.050Z,11.40
2019-02-12T12:10:40.347Z,11.18
2019-02-12T12:13:10.594Z,11.60
2019-02-12T12:15:40.882Z,18.25
2019-02-12T12:18:11.262Z,12.25
2019-02-12T12:20:42.444Z,16.40
2019-02-12T12:23:12.753Z,12.33
2019-02-12T12:25:42.964Z,12.68
2019-02-12T12:28:13.192Z,13.75
2019-02-12T12:30:43.326Z,10.85
2019-02-12T12:33:13.587Z,9.70
2019-02-12T12:35:43.999Z,14.73
2019-02-12T12:38:14.281Z,13.68
2019-02-12T12:40:45.473Z,10.90
2019-02-12T12:43:15.677Z,13.13
2019-02-12T12:45:46.071Z,12.95
2019-02-12T12:48:16.575Z,16.42
2019-02-12T12:50:46.932Z,15.00
2019-02-12T12:53:17.171Z,16.57
2019-02-12T12:55:47.776Z,11.85
2019-02-12T12:58:17.980Z,14.93
2019-02-12T13:00:48.193Z,12.50
2019-02-12T13:03:18.399Z,14.98
2019-02-12T13:05:48.654Z,15.05
2019-02-12T13:08:19.352Z,11.93
2019-02-12T13:10:49.671Z,14.53
2019-02-12T13:13:19.913Z,14.93
2019-02-12T13:15:50.175Z,13.43
2019-02-12T13:18:20.307Z,21.25
2019-02-12T13:20:50.546Z,14.75
2019-02-12T13:23:20.719Z,18.80
2019-02-12T13:25:51.061Z,18.02
2019-02-12T13:28:22.279Z,19.60
2019-02-12T13:30:52.546Z,16.00
2019-02-12T13:33:22.722Z,15.60
2019-02-12T13:35:53.338Z,18.73
2019-02-12T13:38:23.956Z,14.83
2019-02-12T13:40:55.060Z,14.98
2019-02-12T13:43:25.344Z,16.15
2019-02-12T13:45:55.494Z,13.05
2019-02-12T13:48:25.825Z,14.98
2019-02-12T13:50:56.200Z,15.83
2019-02-12T13:53:26.397Z,14.05
2019-02-12T13:55:56.528Z,15.45
2019-02-12T13:58:26.912Z,15.13
2019-02-12T14:00:57.110Z,17.10
2019-02-12T14:03:27.489Z,12.45
2019-02-12T14:05:57.756Z,16.05
2019-02-12T14:08:28.251Z,17.40
2019-02-12T14:10:58.510Z,10.55
2019-02-12T14:13:28.644Z,12.47
2019-02-12T14:15:58.855Z,14.47
2019-02-12T14:18:29.150Z,12.15
2019-02-12T14:20:59.399Z,16.70
2019-02-12T14:23:29.669Z,13.53
2019-02-12T14:26:00.168Z,14.18
2019-02-12T14:28:30.327Z,13.43
2019-02-12T14:31:00.851Z,15.60
2019-02-12T14:33:31.420Z,11.90
2019-02-12T14:36:01.719Z,14.03
2019-02-12T14:38:32.904Z,15.88
2019-02-12T14:41:03.332Z,17.35
2019-02-12T14:43:33.523Z,15.20
2019-02-12T14:46:03.755Z,16.07
2019-02-12T14:48:34.015Z,16.87
2019-02-12T14:51:04.266Z,14.93
2019-02-12T14:53:35.031Z,14.75
2019-02-12T14:56:11.139Z,19.27
2019-02-12T14:58:38.286Z,19.02
2019-02-12T15:01:08.744Z,14.25
2019-02-12T15:03:38.995Z,16.60
2019-02-12T15:06:12.152Z,17.62
2019-02-12T15:08:42.359Z,19.98
2019-02-12T15:11:12.762Z,21.30
2019-02-12T15:13:42.958Z,17.57
2019-02-12T15:16:13.191Z,15.43
2019-02-12T15:18:43.250Z,16.87
2019-02-12T15:21:13.634Z,16.82
2019-02-12T15:23:43.814Z,18.15
2019-02-12T15:26:14.282Z,22.90
2019-02-12T15:28:44.483Z,19.32
2019-02-12T15:31:14.845Z,18.77
2019-02-12T15:33:45.161Z,16.80
2019-02-12T15:36:15.411Z,21.40
2019-02-12T15:38:45.961Z,20.48
2019-02-12T15:41:16.562Z,22.35
2019-02-12T15:43:47.298Z,21.57
2019-02-12T15:46:17.668Z,19.82
2019-02-12T15:48:47.872Z,16.48
2019-02-12T15:51:19.766Z,14.95
2019-02-12T15:53:49.990Z,17.85
2019-02-12T15:56:21.443Z,18.00
2019-02-12T15:58:53.628Z,21.62
2019-02-12T16:01:24.374Z,17.20
2019-02-12T16:03:56.290Z,21.80
2019-02-12T16:06:27.815Z,21.62
2019-02-12T16:08:58.006Z,18.95
2019-02-12T16:11:28.321Z,17.85
2019-02-12T16:13:58.842Z,22.10
2019-02-12T16:16:31.694Z,21.02
2019-02-12T16:19:01.968Z,27.93
2019-02-12T16:21:32.306Z,22.20
2019-02-12T16:24:03.656Z,19.73
2019-02-12T16:26:34.004Z,22.93
2019-02-12T16:29:04.378Z,21.07
2019-02-12T16:31:34.598Z,24.27
2019-02-12T16:34:04.855Z,23.95
2019-02-12T16:36:35.102Z,21.95
2019-02-12T16:39:06.172Z,19.52
2019-02-12T16:41:37.763Z,18.55
2019-02-12T16:44:07.991Z,19.92
2019-02-12T16:46:37.671Z,22.90
2019-02-12T16:49:08.058Z,21.73
2019-02-12T16:51:38.397Z,23.22
2019-02-12T16:54:09.550Z,24.47
2019-02-12T16:56:39.747Z,20.82
2019-02-12T16:59:10.059Z,24.05
2019-02-12T17:01:40.302Z,28.42
2019-02-12T17:04:10.706Z,20.60
2019-02-12T17:06:40.352Z,19.77
2019-02-12T17:09:11.693Z,19.48
2019-02-12T17:11:42.010Z,24.15
2019-02-12T17:14:12.206Z,19.48
2019-02-12T17:16:42.477Z,22.25
2019-02-12T17:19:12.695Z,20.95
2019-02-12T17:21:42.951Z,17.92
2019-02-12T17:24:13.404Z,19.52
2019-02-12T17:26:43.695Z,24.45
2019-02-12T17:29:13.929Z,27.17
2019-02-12T17:31:43.575Z,16.37
2019-02-12T17:34:13.778Z,19.15
2019-02-12T17:36:44.059Z,20.75
2019-02-12T17:39:14.221Z,21.42
2019-02-12T17:41:43.946Z,21.48
2019-02-12T17:44:14.402Z,19.80
2019-02-12T17:46:44.615Z,22.35
2019-02-12T17:49:14.743Z,24.65
2019-02-12T17:51:44.987Z,22.35
2019-02-12T17:54:16.621Z,21.85
2019-02-12T17:56:46.960Z,21.90
2019-02-12T17:59:17.119Z,21.95
2019-02-12T18:01:47.186Z,22.13
2019-02-12T18:04:17.316Z,28.70
2019-02-12T18:06:47.569Z,23.73
2019-02-12T18:09:17.858Z,27.02
2019-02-12T18:11:49.432Z,24.20
2019-02-12T18:14:19.678Z,27.60
2019-02-12T18:16:49.960Z,25.97
2019-02-12T18:19:20.200Z,23.32
2019-02-12T18:21:49.831Z,27.03
2019-02-12T18:24:19.986Z,28.07
2019-02-12T18:26:50.269Z,25.62
2019-02-12T18:29:20.491Z,22.27
2019-02-12T18:31:50.730Z,24.65
2019-02-12T18:34:20.923Z,25.88
2019-02-12T18:36:51.103Z,26.87
2019-02-12T18:39:21.287Z,23.22
2019-02-12T18:41:51.757Z,25.55
2019-02-12T18:44:21.447Z,25.55
2019-02-12T18:46:51.135Z,25.47
2019-02-12T18:49:21.539Z,25.08
2019-02-12T18:51:51.659Z,24.32
2019-02-12T18:54:21.931Z,22.00
2019-02-12T18:56:52.396Z,25.30
2019-02-12T18:59:22.543Z,21.42
2019-02-12T19:01:52.810Z,25.27
2019-02-12T19:04:23.132Z,22.62
2019-02-12T19:06:53.512Z,23.60
2019-02-12T19:09:23.648Z,22.40
2019-02-12T19:11:54.558Z,19.67
2019-02-12T19:14:24.958Z,23.25
2019-02-12T19:16:55.137Z,19.23
2019-02-12T19:19:25.336Z,22.42
2019-02-12T19:21:55.751Z,24.72
2019-02-12T19:24:25.972Z,24.27
2019-02-12T19:26:56.330Z,21.33
2019-02-12T19:29:26.509Z,21.68
2019-02-12T19:31:59.256Z,23.67
2019-02-12T19:34:28.605Z,22.10
2019-02-12T19:36:58.936Z,22.25
2019-02-12T19:39:29.121Z,21.25
2019-02-12T19:41:59.465Z,23.87
2019-02-12T19:44:29.674Z,20.57
2019-02-12T19:46:59.901Z,21.48
2019-02-12T19:49:30.089Z,23.75
2019-02-12T19:52:00.635Z,19.95
2019-02-12T19:54:30.839Z,27.20
2019-02-12T19:57:01.519Z,23.90
2019-02-12T19:59:31.735Z,23.65
2019-02-12T20:02:01.953Z,26.62
2019-02-12T20:04:32.182Z,25.10
2019-02-12T20:07:02.450Z,29.23
2019-02-12T20:09:32.676Z,29.85
2019-02-12T20:12:03.282Z,26.77
2019-02-12T20:14:33.476Z,27.85
2019-02-12T20:17:03.762Z,25.37
2019-02-12T20:19:34.352Z,25.70
2019-02-12T20:22:04.694Z,28.32
2019-02-12T20:24:34.922Z,28.35
2019-02-12T20:27:06.803Z,31.27
2019-02-12T20:29:37.266Z,25.10
2019-02-12T20:32:07.492Z,29.02
2019-02-12T20:34:37.680Z,27.32
2019-02-12T20:37:08.247Z,30.43
2019-02-12T20:39:38.632Z,25.23
2019-02-12T20:42:09.063Z,28.92
2019-02-12T20:44:39.271Z,31.12
2019-02-12T20:47:09.781Z,32.50
2019-02-12T20:49:39.930Z,28.98
2019-02-12T20:52:10.255Z,27.32
2019-02-12T20:54:40.479Z,28.50
2019-02-12T20:57:15.116Z,27.15
2019-02-12T20:59:42.989Z,27.65
2019-02-12T21:02:13.297Z,28.00
2019-02-12T21:04:43.465Z,31.07
2019-02-12T21:07:13.747Z,23.57
2019-02-12T21:09:43.942Z,23.80
2019-02-12T21:12:14.239Z,31.27
2019-02-12T21:14:44.407Z,26.25
2019-02-12T21:17:14.691Z,27.50
2019-02-12T21:19:44.820Z,30.52
2019-02-12T21:22:15.170Z,29.35
2019-02-12T21:24:45.400Z,26.65
2019-02-12T21:27:22.944Z,28.23
2019-02-12T21:29:47.984Z,25.23
2019-02-12T21:32:17.883Z,29.67
2019-02-12T21:34:48.096Z,28.38
2019-02-12T21:37:18.534Z,29.18
2019-02-12T21:39:48.845Z,26.02
2019-02-12T21:42:19.077Z,26.75
2019-02-12T21:44:49.367Z,30.70
2019-02-12T21:47:19.640Z,28.10
2019-02-12T21:49:49.983Z,26.55
2019-02-12T21:52:20.207Z,34.90
2019-02-12T21:54:50.369Z,26.95
2019-02-12T21:57:21.022Z,32.95
2019-02-12T21:59:51.278Z,33.00
2019-02-12T22:02:21.603Z,28.60
2019-02-12T22:04:51.876Z,25.43
2019-02-12T22:07:22.211Z,34.95
2019-02-12T22:09:52.510Z,30.00
2019-02-12T22:12:22.779Z,27.32
2019-02-12T22:14:52.491Z,26.03
2019-02-12T22:17:22.751Z,31.80
2019-02-12T22:19:52.952Z,32.55
2019-02-12T22:22:22.646Z,31.50
2019-02-12T22:24:52.903Z,27.35
2019-02-12T22:27:23.626Z,29.60
2019-02-12T22:29:53.895Z,28.57
2019-02-12T22:32:23.588Z,29.37
2019-02-12T22:34:53.907Z,32.30
2019-02-12T22:37:23.589Z,31.37
2019-02-12T22:39:54.108Z,33.83
2019-02-12T22:42:24.544Z,24.60
2019-02-12T22:44:54.753Z,28.45
2019-02-12T22:47:24.383Z,28.37
2019-02-12T22:49:57.935Z,32.28
2019-02-12T22:52:28.068Z,28.12
2019-02-12T22:54:58.223Z,29.42
2019-02-12T22:57:30.108Z,30.62
2019-02-12T22:59:59.786Z,25.63
2019-02-12T23:02:30.133Z,32.40
2019-02-12T23:05:00.334Z,27.70
2019-02-12T23:07:30.041Z,26.73
2019-02-12T23:09:59.757Z,31.02
2019-02-12T23:12:30.102Z,27.62
2019-02-12T23:14:59.764Z,25.90
2019-02-12T23:17:29.971Z,29.30
2019-02-12T23:19:59.594Z,24.23
2019-02-12T23:22:29.829Z,25.88
2019-02-12T23:24:59.367Z,30.27
2019-02-12T23:27:29.003Z,32.23
2019-02-12T23:29:58.623Z,30.63
2019-02-12T23:32:28.162Z,35.43
2019-02-12T23:34:58.395Z,31.48
2019-02-12T23:37:28.080Z,39.27
2019-02-12T23:39:57.662Z,40.37
2019-02-12T23:42:28.007Z,34.15
2019-02-12T23:44:58.348Z,42.10
2019-02-12T23:47:27.976Z,37.40
2019-02-12T23:49:57.608Z,39.17
2019-02-12T23:52:27.612Z,34.77
2019-02-12T23:54:57.156Z,40.87
2019-02-12T23:57:26.780Z,38.10
2019-02-12T23:59:57.505Z,34.03
